Time;durP1;ratioP1;P1;durP2;ratioP2;P2;SDS_P1;SDS_P2;PMS_P1;PMS_P2;Temp;Humidity;BMP_temperature;BMP_pressure;BME280_temperature;BME280_humidity;BME280_pressure;Samples;Min_cycle;Max_cycle;Signal;HPM_P1;HPM_P2
2022/11/23 00:00:23;;;;;;;;;4.00;2.00;;;;;;;;5109928;27;45334;-65
2022/11/23 00:02:55;;;;;;;;;3.50;2.00;;;;;;;;5100550;27;45668;-65
2022/11/23 00:05:21;;;;;;;;;2.75;2.00;;;;;;;;5100498;27;45498;-64
2022/11/23 00:07:46;;;;;;;;;5.00;3.00;;;;;;;;5114874;27;46567;-65
2022/11/23 00:10:11;;;;;;;;;4.00;1.25;;;;;;;;5120849;27;45444;-65
2022/11/23 00:12:37;;;;;;;;;3.00;1.00;;;;;;;;5114024;27;45386;-65
2022/11/23 00:15:02;;;;;;;;;2.25;1.00;;;;;;;;5119917;27;45417;-65
2022/11/23 00:17:27;;;;;;;;;3.75;2.50;;;;;;;;5108904;27;45389;-64
2022/11/23 00:19:53;;;;;;;;;3.75;2.00;;;;;;;;5100133;27;45422;-65
2022/11/23 00:22:18;;;;;;;;;3.00;1.00;;;;;;;;5100376;27;45580;-65
2022/11/23 00:24:43;;;;;;;;;6.25;2.75;;;;;;;;5103847;27;45367;-64
2022/11/23 00:27:08;;;;;;;;;2.00;2.00;;;;;;;;5112333;27;46702;-65
2022/11/23 00:29:33;;;;;;;;;2.00;2.00;;;;;;;;5120565;27;45382;-65
2022/11/23 00:31:58;;;;;;;;;3.25;2.50;;;;;;;;5104352;27;45428;-65
2022/11/23 00:34:24;;;;;;;;;4.00;3.00;;;;;;;;5109719;27;45458;-65
2022/11/23 00:36:49;;;;;;;;;3.50;2.50;;;;;;;;5111050;27;46538;-65
2022/11/23 00:39:15;;;;;;;;;1.75;1.00;;;;;;;;5099703;27;45315;-65
2022/11/23 00:41:40;;;;;;;;;2.00;2.00;;;;;;;;5113372;27;45400;-65
2022/11/23 00:44:05;;;;;;;;;2.25;2.25;;;;;;;;5118119;27;45358;-65
2022/11/23 00:46:30;;;;;;;;;3.50;2.25;;;;;;;;5099993;27;46312;-65
2022/11/23 00:48:56;;;;;;;;;2.00;1.50;;;;;;;;5107036;27;45418;-65
2022/11/23 00:51:23;;;;;;;;;4.50;1.00;;;;;;;;5120179;27;45424;-65
2022/11/23 00:53:49;;;;;;;;;2.50;2.00;;;;;;;;5113594;27;45270;-65
2022/11/23 00:56:15;;;;;;;;;3.00;1.00;;;;;;;;5119147;27;46584;-65
2022/11/23 00:58:40;;;;;;;;;2.50;2.00;;;;;;;;5132040;27;45418;-65
2022/11/23 01:01:05;;;;;;;;;2.00;2.00;;;;;;;;5139541;27;45310;-65
2022/11/23 01:03:31;;;;;;;;;4.50;1.50;;;;;;;;5120022;27;45441;-65
2022/11/23 01:06:07;;;;;;;;;1.00;1.00;;;;;;;;5119849;27;46325;-65
2022/11/23 01:08:32;;;;;;;;;5.00;1.75;;;;;;;;5112920;27;45286;-65
2022/11/23 01:10:59;;;;;;;;;4.50;2.00;;;;;;;;5113675;27;45327;-65
2022/11/23 01:13:24;;;;;;;;;3.25;1.00;;;;;;;;5119119;27;45473;-65
2022/11/23 01:15:49;;;;;;;;;3.00;1.00;;;;;;;;5114295;27;45520;-64
2022/11/23 01:18:15;;;;;;;;;3.25;1.00;;;;;;;;5119463;27;45446;-64
2022/11/23 01:20:40;;;;;;;;;2.75;1.25;;;;;;;;5119899;27;45317;-65
2022/11/23 01:23:05;;;;;;;;;4.75;2.00;;;;;;;;5120024;27;45435;-64
2022/11/23 01:25:30;;;;;;;;;3.00;2.00;;;;;;;;5119487;27;45359;-64
2022/11/23 01:27:56;;;;;;;;;4.00;1.25;;;;;;;;5098768;27;45404;-64
2022/11/23 01:30:21;;;;;;;;;3.00;2.00;;;;;;;;5099096;27;45244;-64
2022/11/23 01:32:46;;;;;;;;;2.00;1.00;;;;;;;;5127027;27;45366;-64
2022/11/23 01:35:11;;;;;;;;;2.75;1.75;;;;;;;;5140166;27;46605;-64
2022/11/23 01:37:36;;;;;;;;;2.00;1.00;;;;;;;;5127696;27;45450;-63
2022/11/23 01:40:02;;;;;;;;;2.75;1.00;;;;;;;;5119594;27;45366;-62
2022/11/23 01:42:46;;;;;;;;;4.50;1.00;;;;;;;;5119338;27;45476;-64
2022/11/23 01:45:30;;;;;;;;;2.25;0.25;;;;;;;;5119805;27;46363;-63
2022/11/23 01:47:55;;;;;;;;;1.00;1.00;;;;;;;;5119235;27;45839;-64
2022/11/23 01:50:21;;;;;;;;;1.25;1.25;;;;;;;;5131062;27;45334;-63
2022/11/23 01:52:46;;;;;;;;;1.00;1.00;;;;;;;;5118890;27;45300;-64
2022/11/23 01:55:11;;;;;;;;;2.50;1.00;;;;;;;;5101714;27;46130;-64
2022/11/23 01:57:39;;;;;;;;;4.00;2.50;;;;;;;;5118343;27;45302;-64
2022/11/23 02:00:04;;;;;;;;;2.75;2.00;;;;;;;;5119193;27;45487;-64
2022/11/23 02:02:31;;;;;;;;;0.50;0.25;;;;;;;;5117900;27;45552;-64
2022/11/23 02:04:58;;;;;;;;;4.00;1.00;;;;;;;;5118794;27;46707;-64
2022/11/23 02:07:24;;;;;;;;;2.75;1.00;;;;;;;;5119700;27;45396;-64
2022/11/23 02:09:49;;;;;;;;;3.75;2.00;;;;;;;;5115659;27;45455;-64
2022/11/23 02:12:15;;;;;;;;;1.00;1.00;;;;;;;;5117125;27;45329;-64
2022/11/23 02:14:40;;;;;;;;;2.00;0.25;;;;;;;;5113888;27;46417;-64
2022/11/23 02:17:05;;;;;;;;;1.50;1.00;;;;;;;;5102069;27;45469;-64
2022/11/23 02:19:42;;;;;;;;;1.00;1.00;;;;;;;;5110055;27;45370;-64
2022/11/23 02:22:11;;;;;;;;;3.50;1.00;;;;;;;;5098842;27;45373;-64
2022/11/23 02:24:41;;;;;;;;;4.00;1.00;;;;;;;;5114593;27;46594;-64
2022/11/23 02:27:06;;;;;;;;;2.75;1.00;;;;;;;;5117929;27;45446;-64
2022/11/23 02:29:33;;;;;;;;;5.00;2.00;;;;;;;;5114034;27;45449;-64
2022/11/23 02:31:58;;;;;;;;;5.00;2.00;;;;;;;;5098533;27;45497;-64
2022/11/23 02:34:23;;;;;;;;;2.50;1.00;;;;;;;;5098144;27;46432;-64
2022/11/23 02:36:50;;;;;;;;;2.00;1.00;;;;;;;;5104142;27;45473;-64
2022/11/23 02:39:29;;;;;;;;;4.75;1.00;;;;;;;;5118984;27;45302;-64
2022/11/23 02:41:55;;;;;;;;;4.00;2.00;;;;;;;;5117813;27;45438;-64
2022/11/23 02:44:24;;;;;;;;;3.00;1.75;;;;;;;;5117143;27;45438;-64
2022/11/23 02:46:51;;;;;;;;;3.00;1.25;;;;;;;;5118173;27;45387;-64
2022/11/23 02:49:16;;;;;;;;;3.50;1.00;;;;;;;;5104046;27;45549;-63
2022/11/23 02:51:41;;;;;;;;;2.75;2.00;;;;;;;;5118171;27;45394;-63
2022/11/23 02:54:07;;;;;;;;;3.25;2.00;;;;;;;;5118115;27;46118;-63
2022/11/23 02:56:32;;;;;;;;;2.50;1.00;;;;;;;;5117197;27;45647;-63
2022/11/23 02:58:57;;;;;;;;;3.00;1.75;;;;;;;;5117973;27;45389;-63
2022/11/23 03:01:22;;;;;;;;;7.00;2.50;;;;;;;;5118600;27;45427;-63
2022/11/23 03:03:48;;;;;;;;;5.00;2.00;;;;;;;;5114009;27;46329;-63
2022/11/23 03:06:13;;;;;;;;;2.00;1.00;;;;;;;;5132008;27;45463;-63
2022/11/23 03:08:38;;;;;;;;;3.00;2.00;;;;;;;;5138740;27;45456;-62
2022/11/23 03:11:03;;;;;;;;;3.00;1.75;;;;;;;;5139097;27;45282;-62
2022/11/23 03:13:28;;;;;;;;;4.25;2.25;;;;;;;;5138438;27;45573;-62
2022/11/23 03:15:55;;;;;;;;;5.00;1.00;;;;;;;;5138503;27;45393;-63
2022/11/23 03:18:21;;;;;;;;;1.50;1.50;;;;;;;;5138760;27;45360;-62
2022/11/23 03:20:46;;;;;;;;;2.50;2.00;;;;;;;;5135756;27;45562;-63
2022/11/23 03:23:11;;;;;;;;;3.75;1.00;;;;;;;;5119041;27;45579;-63
2022/11/23 03:25:36;;;;;;;;;2.50;2.00;;;;;;;;5117764;27;45424;-62
2022/11/23 03:28:01;;;;;;;;;3.75;2.00;;;;;;;;5117910;27;45370;-62
2022/11/23 03:30:27;;;;;;;;;1.75;1.75;;;;;;;;5118160;27;45413;-62
2022/11/23 03:32:52;;;;;;;;;3.25;2.00;;;;;;;;5117726;27;46589;-62
2022/11/23 03:35:17;;;;;;;;;7.75;3.00;;;;;;;;5117795;27;45547;-62
2022/11/23 03:37:42;;;;;;;;;6.00;1.25;;;;;;;;5115471;27;45416;-62
2022/11/23 03:40:08;;;;;;;;;4.00;2.00;;;;;;;;5118119;27;45339;-62
2022/11/23 03:42:33;;;;;;;;;2.50;2.50;;;;;;;;5117699;27;46553;-62
2022/11/23 03:44:58;;;;;;;;;6.00;1.50;;;;;;;;5117365;27;45459;-63
2022/11/23 03:47:23;;;;;;;;;5.00;1.00;;;;;;;;5117717;27;45490;-62
2022/11/23 03:49:49;;;;;;;;;3.00;1.50;;;;;;;;5114693;27;45830;-63
2022/11/23 03:52:14;;;;;;;;;3.00;1.50;;;;;;;;5105748;27;46191;-63
2022/11/23 03:54:39;;;;;;;;;2.00;2.00;;;;;;;;5097082;27;45840;-63
2022/11/23 03:57:05;;;;;;;;;3.00;1.75;;;;;;;;5104256;27;45494;-63
2022/11/23 03:59:30;;;;;;;;;4.75;1.00;;;;;;;;5106576;27;45362;-63
2022/11/23 04:01:55;;;;;;;;;2.75;2.00;;;;;;;;5096440;27;45403;-63
2022/11/23 04:04:20;;;;;;;;;3.75;2.00;;;;;;;;5106161;27;45302;-63
2022/11/23 04:06:45;;;;;;;;;3.25;1.25;;;;;;;;5109460;27;45506;-63
2022/11/23 04:09:11;;;;;;;;;4.00;2.00;;;;;;;;5102108;27;45517;-63
2022/11/23 04:11:37;;;;;;;;;2.75;1.00;;;;;;;;5120771;27;46236;-63
2022/11/23 04:14:02;;;;;;;;;3.75;1.00;;;;;;;;5119884;27;45378;-64
2022/11/23 04:16:27;;;;;;;;;2.50;2.00;;;;;;;;5119602;27;45401;-63
2022/11/23 04:18:52;;;;;;;;;2.25;1.25;;;;;;;;5105714;27;45388;-64
2022/11/23 04:21:17;;;;;;;;;2.00;1.00;;;;;;;;5119396;27;46184;-64
2022/11/23 04:23:43;;;;;;;;;3.00;2.00;;;;;;;;5101002;27;45421;-64
2022/11/23 04:26:08;;;;;;;;;3.00;1.00;;;;;;;;5100138;27;45169;-63
2022/11/23 04:28:33;;;;;;;;;2.75;1.00;;;;;;;;5100363;27;45371;-64
2022/11/23 04:30:58;;;;;;;;;5.00;1.50;;;;;;;;5114919;27;45383;-63
2022/11/23 04:33:24;;;;;;;;;9.00;5.25;;;;;;;;5120516;27;45422;-63
2022/11/23 04:35:49;;;;;;;;;6.25;2.25;;;;;;;;5120715;27;45906;-63
2022/11/23 04:38:15;;;;;;;;;5.25;1.00;;;;;;;;5120612;27;45386;-63
2022/11/23 04:40:40;;;;;;;;;1.00;1.00;;;;;;;;5115383;27;46200;-63
2022/11/23 04:43:05;;;;;;;;;4.75;1.75;;;;;;;;5120373;27;45514;-63
2022/11/23 04:45:30;;;;;;;;;4.00;2.00;;;;;;;;5120285;27;45307;-63
2022/11/23 04:47:55;;;;;;;;;4.25;3.00;;;;;;;;5121297;27;45364;-63
2022/11/23 04:50:21;;;;;;;;;3.00;3.00;;;;;;;;5120136;27;46600;-62
2022/11/23 04:52:46;;;;;;;;;3.25;2.25;;;;;;;;5120410;27;45425;-62
2022/11/23 04:55:11;;;;;;;;;2.50;1.00;;;;;;;;5120096;27;45484;-63
2022/11/23 04:57:36;;;;;;;;;3.00;1.00;;;;;;;;5101583;27;45600;-64
2022/11/23 05:00:02;;;;;;;;;4.00;2.75;;;;;;;;5099493;27;46471;-64
2022/11/23 05:02:27;;;;;;;;;3.00;2.00;;;;;;;;5099273;27;45510;-64
2022/11/23 05:04:52;;;;;;;;;3.00;1.00;;;;;;;;5114108;27;45824;-64
2022/11/23 05:07:18;;;;;;;;;1.25;1.25;;;;;;;;5120407;27;45289;-64
2022/11/23 05:09:43;;;;;;;;;10.75;2.00;;;;;;;;5119763;27;46426;-64
2022/11/23 05:12:08;;;;;;;;;2.00;2.00;;;;;;;;5120047;27;45466;-64
2022/11/23 05:14:33;;;;;;;;;6.25;1.00;;;;;;;;5108853;27;45607;-63
2022/11/23 05:16:58;;;;;;;;;4.00;2.00;;;;;;;;5116961;27;45513;-65
2022/11/23 05:19:24;;;;;;;;;1.50;1.50;;;;;;;;5118807;27;45432;-64
2022/11/23 05:21:49;;;;;;;;;3.00;3.00;;;;;;;;5132205;27;45424;-64
2022/11/23 05:24:14;;;;;;;;;2.75;2.00;;;;;;;;5140731;27;45423;-64
2022/11/23 05:26:39;;;;;;;;;3.00;2.00;;;;;;;;5140687;27;45422;-64
2022/11/23 05:29:04;;;;;;;;;5.75;3.00;;;;;;;;5140405;27;45397;-62
2022/11/23 05:31:30;;;;;;;;;4.50;3.00;;;;;;;;5132291;27;45441;-63
2022/11/23 05:33:55;;;;;;;;;2.50;2.00;;;;;;;;5118639;27;45421;-63
2022/11/23 05:36:20;;;;;;;;;5.25;2.00;;;;;;;;5119679;27;45381;-64
2022/11/23 05:38:45;;;;;;;;;3.50;2.00;;;;;;;;5119778;27;45519;-63
2022/11/23 05:41:10;;;;;;;;;3.75;3.00;;;;;;;;5119555;27;45398;-63
2022/11/23 05:43:36;;;;;;;;;10.00;4.75;;;;;;;;5119489;27;45357;-63
2022/11/23 05:46:01;;;;;;;;;4.25;2.50;;;;;;;;5119355;27;45270;-63
2022/11/23 05:48:26;;;;;;;;;4.25;3.00;;;;;;;;5119079;27;46571;-63
2022/11/23 05:50:51;;;;;;;;;7.25;3.25;;;;;;;;5102570;27;45347;-63
2022/11/23 05:53:17;;;;;;;;;10.50;5.75;;;;;;;;5117677;27;45490;-63
2022/11/23 05:55:42;;;;;;;;;7.25;3.50;;;;;;;;5102757;27;45283;-63
2022/11/23 05:58:08;;;;;;;;;4.75;4.00;;;;;;;;5098741;27;46361;-64
2022/11/23 06:00:33;;;;;;;;;9.75;4.75;;;;;;;;5109784;27;45491;-63
2022/11/23 06:03:01;;;;;;;;;7.75;3.00;;;;;;;;5115039;27;45691;-63
2022/11/23 06:05:27;;;;;;;;;6.00;4.75;;;;;;;;5113263;27;45604;-63
2022/11/23 06:07:52;;;;;;;;;6.75;5.75;;;;;;;;5104379;27;46531;-63
2022/11/23 06:10:18;;;;;;;;;5.00;2.75;;;;;;;;5118987;27;45436;-63
2022/11/23 06:12:44;;;;;;;;;7.25;3.25;;;;;;;;5118195;27;45614;-63
2022/11/23 06:15:09;;;;;;;;;8.00;2.75;;;;;;;;5118009;27;45441;-63
2022/11/23 06:17:35;;;;;;;;;5.25;3.00;;;;;;;;5106931;27;46119;-63
2022/11/23 06:20:00;;;;;;;;;9.25;3.75;;;;;;;;5107094;27;45378;-64
2022/11/23 06:22:25;;;;;;;;;7.50;4.00;;;;;;;;5111004;27;45353;-64
2022/11/23 06:24:50;;;;;;;;;10.00;5.67;;;;;;;;5110774;27;45233;-63
2022/11/23 06:27:16;;;;;;;;;4.25;3.50;;;;;;;;5115739;27;45604;-63
2022/11/23 06:29:41;;;;;;;;;8.00;5.00;;;;;;;;5130131;27;45440;-63
2022/11/23 06:32:07;;;;;;;;;6.25;4.25;;;;;;;;5123283;27;45529;-64
2022/11/23 06:34:32;;;;;;;;;4.50;4.50;;;;;;;;5112525;27;45554;-63
2022/11/23 06:36:58;;;;;;;;;10.33;9.00;;;;;;;;5107610;27;46557;-63
2022/11/23 06:39:23;;;;;;;;;9.50;6.75;;;;;;;;5118505;27;45307;-64
2022/11/23 06:41:48;;;;;;;;;10.67;5.67;;;;;;;;5111625;27;46253;-64
2022/11/23 06:44:13;;;;;;;;;4.25;4.25;;;;;;;;5110933;27;45429;-64
2022/11/23 06:46:38;;;;;;;;;16.67;12.67;;;;;;;;5097816;27;46530;-63
2022/11/23 06:49:04;;;;;;;;;16.00;12.00;;;;;;;;5112698;27;45572;-63
2022/11/23 06:51:29;;;;;;;;;10.00;8.00;;;;;;;;5117362;27;45443;-63
2022/11/23 06:53:54;;;;;;;;;13.33;11.67;;;;;;;;5117526;27;45381;-64
2022/11/23 06:56:20;;;;;;;;;16.33;12.67;;;;;;;;5117329;27;46601;-63
2022/11/23 06:58:45;;;;;;;;;8.67;8.67;;;;;;;;5112797;27;45446;-63
2022/11/23 07:01:10;;;;;;;;;18.67;11.00;;;;;;;;5107921;27;46690;-63
2022/11/23 07:03:35;;;;;;;;;12.00;10.50;;;;;;;;5116814;27;45410;-63
2022/11/23 07:06:05;;;;;;;;;12.00;11.00;;;;;;;;5108815;27;46315;-64
2022/11/23 07:08:30;;;;;;;;;9.00;7.25;;;;;;;;5100614;27;45370;-64
2022/11/23 07:10:58;;;;;;;;;11.50;8.75;;;;;;;;5117306;27;45231;-64
2022/11/23 07:13:23;;;;;;;;;12.25;9.50;;;;;;;;5118250;27;45654;-64
2022/11/23 07:15:49;;;;;;;;;13.75;10.50;;;;;;;;5112170;27;46529;-63
2022/11/23 07:18:14;;;;;;;;;9.50;9.00;;;;;;;;5106801;27;45455;-63
2022/11/23 07:20:39;;;;;;;;;15.50;11.50;;;;;;;;5097607;27;45252;-63
2022/11/23 07:23:06;;;;;;;;;12.00;11.00;;;;;;;;5097663;27;45333;-63
2022/11/23 07:25:32;;;;;;;;;8.00;5.00;;;;;;;;5097081;27;46249;-64
2022/11/23 07:27:58;;;;;;;;;10.50;10.25;;;;;;;;5097170;27;45331;-63
2022/11/23 07:30:24;;;;;;;;;6.50;3.75;;;;;;;;5097546;27;45793;-63
2022/11/23 07:32:50;;;;;;;;;13.75;7.50;;;;;;;;5097011;27;45363;-63
2022/11/23 07:35:15;;;;;;;;;19.67;17.67;;;;;;;;5097063;27;45907;-64
2022/11/23 07:37:40;;;;;;;;;11.00;7.33;;;;;;;;5116221;27;45459;-63
2022/11/23 07:40:06;;;;;;;;;12.67;9.33;;;;;;;;5105649;27;45759;-63
2022/11/23 07:42:31;;;;;;;;;13.67;10.33;;;;;;;;5097886;27;45382;-63
2022/11/23 07:44:56;;;;;;;;;11.50;9.75;;;;;;;;5100407;27;45689;-63
2022/11/23 07:47:21;;;;;;;;;10.50;8.00;;;;;;;;5100591;27;45215;-63
2022/11/23 07:49:46;;;;;;;;;16.25;8.00;;;;;;;;5100603;27;45692;-63
2022/11/23 07:52:12;;;;;;;;;11.25;9.00;;;;;;;;5100808;27;45559;-63
2022/11/23 07:54:37;;;;;;;;;9.00;8.25;;;;;;;;5100484;27;45517;-63
2022/11/23 07:57:02;;;;;;;;;10.00;9.25;;;;;;;;5100517;27;45211;-63
2022/11/23 07:59:28;;;;;;;;;9.25;5.50;;;;;;;;5100615;27;45450;-63
2022/11/23 08:01:53;;;;;;;;;8.25;5.25;;;;;;;;5100661;27;45222;-63
2022/11/23 08:04:18;;;;;;;;;10.00;8.25;;;;;;;;5100031;27;45394;-63
2022/11/23 08:06:43;;;;;;;;;15.00;9.75;;;;;;;;5100382;27;45521;-63
2022/11/23 08:09:09;;;;;;;;;10.25;9.25;;;;;;;;5100485;27;45422;-63
2022/11/23 08:11:34;;;;;;;;;9.25;4.50;;;;;;;;5100779;27;45402;-63
2022/11/23 08:13:59;;;;;;;;;9.75;7.00;;;;;;;;5100119;27;46484;-63
2022/11/23 08:16:24;;;;;;;;;9.00;6.00;;;;;;;;5100338;27;45315;-63
2022/11/23 08:18:49;;;;;;;;;3.75;3.25;;;;;;;;5099993;27;45400;-63
2022/11/23 08:21:15;;;;;;;;;5.75;5.50;;;;;;;;5100429;27;45331;-63
2022/11/23 08:23:40;;;;;;;;;9.00;7.25;;;;;;;;5099940;27;45735;-65
2022/11/23 08:26:05;;;;;;;;;9.00;7.00;;;;;;;;5099942;27;45436;-63
2022/11/23 08:28:31;;;;;;;;;8.50;5.50;;;;;;;;5100147;27;45293;-63
2022/11/23 08:30:56;;;;;;;;;12.00;10.00;;;;;;;;5100245;27;45541;-63
2022/11/23 08:33:21;;;;;;;;;9.75;8.75;;;;;;;;5099714;27;47198;-63
2022/11/23 08:35:46;;;;;;;;;9.75;6.00;;;;;;;;5099419;27;45844;-63
2022/11/23 08:38:12;;;;;;;;;13.00;6.00;;;;;;;;5099782;27;45406;-63
2022/11/23 08:40:37;;;;;;;;;9.25;7.75;;;;;;;;5100179;27;45361;-63
2022/11/23 08:43:03;;;;;;;;;5.50;5.50;;;;;;;;5099636;27;46232;-63
2022/11/23 08:45:29;;;;;;;;;7.50;5.25;;;;;;;;5099750;27;45820;-63
2022/11/23 08:47:58;;;;;;;;;8.00;5.50;;;;;;;;5099849;27;45362;-63
2022/11/23 08:50:23;;;;;;;;;4.25;4.25;;;;;;;;5099843;27;45486;-63
2022/11/23 08:52:53;;;;;;;;;4.25;4.25;;;;;;;;5099515;27;46347;-63
2022/11/23 08:55:18;;;;;;;;;8.75;6.25;;;;;;;;5098423;27;45376;-63
2022/11/23 08:57:43;;;;;;;;;6.00;5.00;;;;;;;;5099695;27;45379;-63
2022/11/23 09:00:09;;;;;;;;;10.75;5.00;;;;;;;;5100017;27;45383;-63
2022/11/23 09:02:34;;;;;;;;;5.50;4.00;;;;;;;;5099306;27;45614;-63
2022/11/23 09:04:59;;;;;;;;;11.25;6.00;;;;;;;;5099214;27;45389;-63
2022/11/23 09:07:25;;;;;;;;;9.50;5.75;;;;;;;;5099641;27;45450;-63
2022/11/23 09:09:50;;;;;;;;;8.00;6.25;;;;;;;;5099737;27;45847;-63
2022/11/23 09:12:15;;;;;;;;;5.00;4.00;;;;;;;;5099293;27;46661;-63
2022/11/23 09:14:40;;;;;;;;;3.75;3.75;;;;;;;;5099249;27;45533;-63
2022/11/23 09:17:06;;;;;;;;;5.75;3.00;;;;;;;;5099396;27;45382;-63
2022/11/23 09:19:31;;;;;;;;;3.75;3.00;;;;;;;;5099160;27;45457;-63
2022/11/23 09:21:56;;;;;;;;;4.75;4.25;;;;;;;;5099124;27;46171;-63
2022/11/23 09:24:22;;;;;;;;;4.00;3.00;;;;;;;;5099238;27;45312;-63
2022/11/23 09:26:47;;;;;;;;;7.00;4.25;;;;;;;;5099120;27;45439;-63
2022/11/23 09:29:12;;;;;;;;;5.75;4.00;;;;;;;;5098013;27;45414;-63
2022/11/23 09:31:37;;;;;;;;;8.25;4.25;;;;;;;;5098861;27;46299;-63
2022/11/23 09:34:03;;;;;;;;;5.50;5.00;;;;;;;;5098855;27;45315;-63
2022/11/23 09:36:29;;;;;;;;;3.50;3.50;;;;;;;;5099108;27;45334;-63
2022/11/23 09:38:54;;;;;;;;;5.75;5.75;;;;;;;;5099125;27;45394;-63
2022/11/23 09:41:28;;;;;;;;;18.75;12.75;;;;;;;;5098834;27;45629;-63
2022/11/23 09:43:53;;;;;;;;;6.00;4.00;;;;;;;;5098798;27;45402;-63
2022/11/23 09:46:19;;;;;;;;;3.50;2.25;;;;;;;;5098829;27;45387;-63
2022/11/23 09:49:08;;;;;;;;;6.00;5.25;;;;;;;;5099036;27;45569;-63
2022/11/23 09:51:35;;;;;;;;;4.25;3.00;;;;;;;;5098585;27;45453;-63
2022/11/23 09:54:04;;;;;;;;;7.50;5.00;;;;;;;;5098526;27;45311;-63
2022/11/23 09:56:34;;;;;;;;;7.00;3.50;;;;;;;;5098714;27;45401;-63
2022/11/23 09:59:19;;;;;;;;;3.25;3.25;;;;;;;;5098952;27;45356;-63
2022/11/23 10:01:45;;;;;;;;;6.00;4.75;;;;;;;;5035294;28;46512;-63
2022/11/23 10:04:17;;;;;;;;;6.00;6.00;;;;;;;;5034921;28;45362;-63
2022/11/23 10:06:43;;;;;;;;;5.50;5.50;;;;;;;;5035032;28;45570;-63
2022/11/23 10:09:22;;;;;;;;;5.50;5.00;;;;;;;;5035810;28;45445;-63
2022/11/23 10:11:57;;;;;;;;;5.00;4.00;;;;;;;;5035180;28;45452;-63
2022/11/23 10:14:41;;;;;;;;;5.50;4.50;;;;;;;;5035231;28;45508;-63
2022/11/23 10:17:25;;;;;;;;;4.00;3.50;;;;;;;;5035255;28;45415;-63
2022/11/23 10:20:22;;;;;;;;;4.00;3.00;;;;;;;;5035072;28;45708;-64
2022/11/23 10:22:58;;;;;;;;;3.75;3.25;;;;;;;;4975733;28;46452;-64
2022/11/23 10:25:24;;;;;;;;;5.25;3.50;;;;;;;;4975558;28;45323;-64
2022/11/23 10:27:51;;;;;;;;;3.00;3.00;;;;;;;;4975885;28;45367;-63
2022/11/23 10:30:17;;;;;;;;;4.00;4.00;;;;;;;;4975770;28;45467;-63
2022/11/23 10:33:05;;;;;;;;;3.25;2.00;;;;;;;;4975683;28;45578;-64
2022/11/23 10:35:32;;;;;;;;;3.50;2.00;;;;;;;;4917504;28;45919;-63
2022/11/23 10:38:09;;;;;;;;;3.00;3.00;;;;;;;;4917550;28;45607;-64
2022/11/23 10:40:37;;;;;;;;;3.25;2.00;;;;;;;;4917819;28;45341;-64
2022/11/23 10:43:09;;;;;;;;;5.75;4.00;;;;;;;;4917492;28;45674;-64
2022/11/23 10:45:34;;;;;;;;;5.00;3.50;;;;;;;;4917462;28;45243;-64
2022/11/23 10:47:59;;;;;;;;;4.75;3.50;;;;;;;;4917744;28;45290;-64
2022/11/23 10:50:29;;;;;;;;;6.25;3.50;;;;;;;;4917767;28;45251;-64
2022/11/23 10:52:55;;;;;;;;;6.00;4.00;;;;;;;;4917288;28;45462;-64
2022/11/23 10:55:29;;;;;;;;;7.75;4.50;;;;;;;;4917299;28;45894;-64
2022/11/23 10:57:55;;;;;;;;;4.00;3.75;;;;;;;;4952068;28;45488;-64
2022/11/23 11:00:21;;;;;;;;;2.50;2.50;;;;;;;;5034951;28;45426;-64
2022/11/23 11:02:48;;;;;;;;;3.25;3.25;;;;;;;;5034580;28;46229;-64
2022/11/23 11:05:13;;;;;;;;;4.00;2.50;;;;;;;;5034526;28;45703;-64
2022/11/23 11:07:39;;;;;;;;;8.50;2.50;;;;;;;;5034708;28;45448;-64
2022/11/23 11:10:05;;;;;;;;;3.00;3.00;;;;;;;;5035088;28;45490;-64
2022/11/23 11:12:32;;;;;;;;;4.50;3.00;;;;;;;;5065140;27;45552;-63
2022/11/23 11:15:01;;;;;;;;;2.00;2.00;;;;;;;;5097365;27;45412;-64
2022/11/23 11:17:28;;;;;;;;;3.00;3.00;;;;;;;;5097908;27;45340;-64
2022/11/23 11:19:54;;;;;;;;;5.50;4.00;;;;;;;;5101080;27;45374;-64
2022/11/23 11:22:28;;;;;;;;;2.75;2.25;;;;;;;;5100956;27;46424;-64
2022/11/23 11:24:54;;;;;;;;;6.25;3.25;;;;;;;;5100958;27;45232;-64
2022/11/23 11:27:20;;;;;;;;;4.00;4.00;;;;;;;;5101092;27;45481;-64
2022/11/23 11:29:47;;;;;;;;;4.00;2.50;;;;;;;;5101308;27;45391;-64
2022/11/23 11:32:31;;;;;;;;;6.00;3.00;;;;;;;;5100835;27;45700;-64
2022/11/23 11:35:08;;;;;;;;;2.75;2.75;;;;;;;;5100804;27;45338;-64
2022/11/23 11:37:35;;;;;;;;;4.00;2.75;;;;;;;;5100952;27;45367;-64
2022/11/23 11:40:03;;;;;;;;;3.75;2.50;;;;;;;;5101010;27;45429;-64
2022/11/23 11:42:35;;;;;;;;;2.50;2.50;;;;;;;;5100670;27;46362;-64
2022/11/23 11:45:03;;;;;;;;;2.00;2.00;;;;;;;;5100549;27;45399;-64
2022/11/23 11:47:42;;;;;;;;;7.50;2.50;;;;;;;;5100774;27;45447;-64
2022/11/23 11:50:19;;;;;;;;;3.00;3.00;;;;;;;;5100857;27;45422;-64
2022/11/23 11:52:46;;;;;;;;;4.00;4.00;;;;;;;;5100665;27;45400;-64
2022/11/23 11:55:17;;;;;;;;;5.25;3.50;;;;;;;;5100462;27;45284;-64
2022/11/23 11:57:48;;;;;;;;;4.00;2.00;;;;;;;;5100842;27;45461;-64
2022/11/23 12:00:18;;;;;;;;;4.25;3.25;;;;;;;;5100584;27;45338;-64
2022/11/23 12:03:01;;;;;;;;;4.75;3.25;;;;;;;;5100198;27;47231;-64
2022/11/23 12:05:36;;;;;;;;;4.00;4.00;;;;;;;;5099780;27;45441;-64
2022/11/23 12:08:02;;;;;;;;;9.67;6.00;;;;;;;;5100262;27;45461;-64
2022/11/23 12:10:32;;;;;;;;;5.25;4.75;;;;;;;;5100577;27;45330;-64
2022/11/23 12:12:58;;;;;;;;;2.75;2.00;;;;;;;;5100180;27;45553;-64
2022/11/23 12:15:27;;;;;;;;;3.00;3.00;;;;;;;;5100230;27;45935;-64
2022/11/23 12:17:53;;;;;;;;;4.75;4.50;;;;;;;;5099975;27;45350;-64
2022/11/23 12:20:28;;;;;;;;;3.75;2.25;;;;;;;;5100120;27;45790;-64
2022/11/23 12:23:12;;;;;;;;;2.00;2.00;;;;;;;;5100097;27;46299;-64
2022/11/23 12:25:41;;;;;;;;;5.00;5.00;;;;;;;;5098761;27;45443;-64
2022/11/23 12:28:25;;;;;;;;;3.00;3.00;;;;;;;;5100176;27;45334;-64
2022/11/23 12:30:57;;;;;;;;;6.33;6.33;;;;;;;;5100157;27;45383;-64
2022/11/23 12:33:28;;;;;;;;;3.00;3.00;;;;;;;;5099716;27;45428;-64
2022/11/23 12:36:05;;;;;;;;;13.33;12.00;;;;;;;;5099794;27;45320;-64
2022/11/23 12:38:40;;;;;;;;;3.00;3.00;;;;;;;;5099902;27;45291;-64
2022/11/23 12:41:08;;;;;;;;;1.75;1.25;;;;;;;;5100042;27;45277;-64
2022/11/23 12:43:52;;;;;;;;;2.50;2.00;;;;;;;;5099620;27;46390;-64
2022/11/23 12:46:17;;;;;;;;;3.00;3.00;;;;;;;;5099646;27;45457;-64
2022/11/23 12:49:01;;;;;;;;;4.75;3.00;;;;;;;;5099706;27;45351;-64
2022/11/23 12:51:26;;;;;;;;;11.25;5.75;;;;;;;;5099737;27;45488;-64
2022/11/23 12:53:57;;;;;;;;;10.25;10.25;;;;;;;;5099445;27;46619;-63
2022/11/23 12:56:41;;;;;;;;;8.00;7.00;;;;;;;;5099773;27;45235;-64
2022/11/23 12:59:09;;;;;;;;;28.00;24.00;;;;;;;;5099706;27;45443;-63
2022/11/23 13:01:38;;;;;;;;;10.25;9.00;;;;;;;;5099440;27;45740;-63
2022/11/23 13:04:22;;;;;;;;;7.00;4.75;;;;;;;;5099213;27;46411;-63
2022/11/23 13:06:59;;;;;;;;;11.00;6.50;;;;;;;;5099236;27;45499;-63
2022/11/23 13:09:43;;;;;;;;;10.75;7.75;;;;;;;;5099508;27;45548;-63
2022/11/23 13:12:08;;;;;;;;;12.25;8.50;;;;;;;;5099707;27;45357;-63
2022/11/23 13:14:33;;;;;;;;;21.00;17.00;;;;;;;;5099002;27;46591;-63
2022/11/23 13:16:59;;;;;;;;;14.33;9.67;;;;;;;;5098957;27;45382;-63
2022/11/23 13:19:27;;;;;;;;;9.75;6.00;;;;;;;;5099050;27;45291;-63
2022/11/23 13:21:53;;;;;;;;;14.67;13.00;;;;;;;;5099220;27;45180;-63
2022/11/23 13:24:29;;;;;;;;;5.00;2.25;;;;;;;;5099004;27;45480;-63
2022/11/23 13:27:12;;;;;;;;;12.00;11.67;;;;;;;;5098883;27;45245;-63
2022/11/23 13:29:45;;;;;;;;;6.75;5.25;;;;;;;;5098993;27;45384;-63
2022/11/23 13:32:30;;;;;;;;;7.50;7.00;;;;;;;;5099121;27;45379;-63
2022/11/23 13:34:55;;;;;;;;;7.75;6.75;;;;;;;;5098910;27;45659;-64
2022/11/23 13:37:23;;;;;;;;;4.25;2.50;;;;;;;;5098789;27;45395;-64
2022/11/23 13:39:55;;;;;;;;;8.33;7.67;;;;;;;;5098719;27;45464;-64
2022/11/23 13:42:21;;;;;;;;;23.33;19.33;;;;;;;;5098234;27;45301;-64
2022/11/23 13:44:46;;;;;;;;;3.00;3.00;;;;;;;;5098614;27;45458;-63
2022/11/23 13:47:17;;;;;;;;;2.00;2.00;;;;;;;;5098814;27;45355;-63
2022/11/23 13:49:44;;;;;;;;;1.50;1.50;;;;;;;;5098937;27;45426;-63
2022/11/23 13:52:21;;;;;;;;;2.75;1.75;;;;;;;;5098791;27;45499;-64
2022/11/23 13:54:55;;;;;;;;;6.75;3.75;;;;;;;;5098494;27;46691;-64
2022/11/23 13:57:21;;;;;;;;;4.00;4.00;;;;;;;;5098566;27;45489;-63
2022/11/23 13:59:46;;;;;;;;;10.25;7.00;;;;;;;;5098713;27;45450;-63
2022/11/23 14:02:12;;;;;;;;;2.00;1.00;;;;;;;;5098661;27;45340;-64
2022/11/23 14:04:41;;;;;;;;;1.50;1.00;;;;;;;;5098210;27;45404;-64
2022/11/23 14:07:14;;;;;;;;;0.00;0.00;;;;;;;;5098275;27;45443;-64
2022/11/23 14:09:48;;;;;;;;;1.25;1.25;;;;;;;;5098533;27;45380;-64
2022/11/23 14:12:14;;;;;;;;;4.00;4.00;;;;;;;;5098696;27;45324;-64
2022/11/23 14:14:42;;;;;;;;;2.00;2.00;;;;;;;;5098109;27;46351;-65
2022/11/23 14:17:25;;;;;;;;;5.00;3.00;;;;;;;;5098254;27;45452;-64
2022/11/23 14:20:09;;;;;;;;;5.00;4.50;;;;;;;;5098287;27;45451;-64
2022/11/23 14:22:53;;;;;;;;;3.75;3.25;;;;;;;;5098161;27;45508;-65
2022/11/23 14:25:36;;;;;;;;;5.50;2.50;;;;;;;;5097820;27;45677;-65
2022/11/23 14:28:10;;;;;;;;;7.25;3.25;;;;;;;;5098124;27;45401;-65
2022/11/23 14:30:45;;;;;;;;;2.50;2.50;;;;;;;;5098310;27;45473;-65
2022/11/23 14:33:28;;;;;;;;;3.00;3.00;;;;;;;;5098186;27;45441;-65
2022/11/23 14:36:03;;;;;;;;;6.00;3.00;;;;;;;;5097603;27;46590;-64
2022/11/23 14:38:47;;;;;;;;;7.00;6.00;;;;;;;;5097643;27;45252;-64
2022/11/23 14:41:18;;;;;;;;;13.75;4.75;;;;;;;;5097973;27;45554;-64
2022/11/23 14:43:44;;;;;;;;;3.00;3.00;;;;;;;;5098138;27;45397;-64